createdAt,value
2022-12-22T00:02:01.083Z,107.28
2022-12-22T00:04:46.625Z,130.38
2022-12-22T00:07:32.089Z,132.48
2022-12-22T00:10:17.365Z,117.13
2022-12-22T00:13:06.075Z,121.30
2022-12-22T00:15:54.356Z,103.25
2022-12-22T00:18:39.841Z,75.32
2022-12-22T00:21:25.352Z,90.60
2022-12-22T00:24:10.768Z,109.97
2022-12-22T00:26:56.251Z,77.50
2022-12-22T00:29:41.696Z,151.57
2022-12-22T00:32:32.532Z,117.35
2022-12-22T00:35:19.051Z,174.05
2022-12-22T00:38:04.724Z,81.40
2022-12-22T00:40:50.071Z,211.70
2022-12-22T00:43:35.611Z,124.40
2022-12-22T00:46:22.785Z,105.13
2022-12-22T00:49:09.309Z,100.03
2022-12-22T00:51:54.927Z,185.65
2022-12-22T00:54:41.936Z,146.15
2022-12-22T00:57:36.603Z,174.02
2022-12-22T01:00:24.015Z,244.13
2022-12-22T01:03:09.638Z,136.02
2022-12-22T01:05:55.284Z,89.20
2022-12-22T01:08:40.661Z,120.78
2022-12-22T01:11:26.884Z,126.82
2022-12-22T01:14:12.113Z,184.77
2022-12-22T01:16:57.667Z,140.70
2022-12-22T01:19:43.177Z,191.07
2022-12-22T01:22:37.183Z,125.90
2022-12-22T01:25:30.244Z,100.60
2022-12-22T01:28:15.692Z,132.85
2022-12-22T01:31:02.065Z,127.07
2022-12-22T01:33:49.127Z,130.10
2022-12-22T01:36:35.597Z,128.00
2022-12-22T01:39:21.502Z,144.00
2022-12-22T01:42:08.421Z,85.72
2022-12-22T01:44:53.873Z,75.93
2022-12-22T01:47:48.295Z,80.50
2022-12-22T01:50:52.720Z,74.78
2022-12-22T01:53:43.827Z,108.03
2022-12-22T01:56:29.801Z,92.25
2022-12-22T01:59:18.564Z,89.57
2022-12-22T02:02:04.340Z,95.00
2022-12-22T02:04:54.792Z,83.93
2022-12-22T02:11:11.917Z,123.53
2022-12-22T02:14:29.643Z,97.85
2022-12-22T02:17:34.718Z,125.68
2022-12-22T02:20:50.045Z,138.32
2022-12-22T02:23:55.684Z,66.57
2022-12-22T02:26:46.742Z,69.25
2022-12-22T02:29:35.863Z,75.32
2022-12-22T02:32:21.363Z,90.10
2022-12-22T02:35:06.663Z,65.60
2022-12-22T02:38:22.446Z,64.90
2022-12-22T02:41:23.284Z,75.32
2022-12-22T02:44:20.677Z,68.07
2022-12-22T02:47:19.000Z,72.88
2022-12-22T02:50:18.946Z,63.45
2022-12-22T02:53:06.333Z,65.95
2022-12-22T02:55:52.267Z,67.35
2022-12-22T02:58:38.747Z,68.22
2022-12-22T03:01:25.045Z,67.85
2022-12-22T03:04:10.507Z,71.38
2022-12-22T03:06:56.397Z,71.10
2022-12-22T03:09:41.960Z,64.32
2022-12-22T03:12:27.634Z,68.50
2022-12-22T03:15:13.075Z,65.07
2022-12-22T03:17:58.667Z,72.55
2022-12-22T03:20:44.216Z,68.13
2022-12-22T03:23:29.503Z,65.60
2022-12-22T03:25:56.606Z,73.70
2022-12-22T03:28:28.543Z,66.65
2022-12-22T03:31:04.429Z,65.78
2022-12-22T03:33:32.681Z,65.93
2022-12-22T03:36:00.056Z,73.88
2022-12-22T03:38:27.598Z,77.47
2022-12-22T03:40:54.601Z,74.93
2022-12-22T03:43:40.477Z,77.82
2022-12-22T03:46:30.117Z,75.50
2022-12-22T03:49:10.594Z,71.30
2022-12-22T03:51:45.691Z,76.13
2022-12-22T03:54:22.140Z,66.28
2022-12-22T03:56:49.935Z,79.45
2022-12-22T03:59:17.848Z,78.63
2022-12-22T04:01:47.795Z,81.97
2022-12-22T04:04:15.971Z,71.13
2022-12-22T04:06:43.464Z,90.22
2022-12-22T04:09:10.434Z,75.95
2022-12-22T04:11:55.768Z,74.82
2022-12-22T04:14:27.966Z,72.63
2022-12-22T04:16:58.369Z,69.35
2022-12-22T04:19:25.449Z,73.05
2022-12-22T04:21:52.308Z,74.80
2022-12-22T04:24:19.189Z,70.30
2022-12-22T04:26:46.104Z,63.95
2022-12-22T04:29:12.923Z,71.43
2022-12-22T04:31:39.989Z,68.20
2022-12-22T04:34:06.989Z,69.40
2022-12-22T04:36:33.910Z,68.20
2022-12-22T04:39:00.717Z,67.90
2022-12-22T04:41:30.645Z,67.00
2022-12-22T04:43:57.499Z,65.63
2022-12-22T04:46:24.457Z,69.07
2022-12-22T04:48:56.151Z,64.80
2022-12-22T04:51:26.857Z,64.63
2022-12-22T04:53:53.739Z,61.97
2022-12-22T04:56:20.738Z,63.78
2022-12-22T04:58:47.537Z,62.28
2022-12-22T05:01:17.632Z,64.97
2022-12-22T05:03:44.697Z,60.15
2022-12-22T05:06:12.518Z,58.22
2022-12-22T05:08:39.698Z,64.25
2022-12-22T05:11:07.685Z,57.75
2022-12-22T05:13:34.671Z,64.70
2022-12-22T05:16:09.090Z,58.10
2022-12-22T05:18:38.150Z,59.65
2022-12-22T05:21:11.422Z,70.38
2022-12-22T05:23:38.831Z,61.30
2022-12-22T05:26:05.941Z,61.92
2022-12-22T05:28:33.141Z,66.75
2022-12-22T05:31:05.533Z,66.13
2022-12-22T05:33:32.611Z,56.85
2022-12-22T05:35:59.421Z,60.72
2022-12-22T05:38:26.383Z,59.92
2022-12-22T05:40:58.250Z,58.17
2022-12-22T05:43:28.587Z,59.13
2022-12-22T05:45:55.506Z,58.42
2022-12-22T05:48:28.305Z,59.97
2022-12-22T05:50:57.979Z,59.95
2022-12-22T05:53:24.824Z,68.38
2022-12-22T05:55:52.943Z,65.22
2022-12-22T05:58:20.267Z,70.80
2022-12-22T06:00:47.188Z,62.30
2022-12-22T06:03:14.468Z,58.92
2022-12-22T06:05:41.374Z,62.20
2022-12-22T06:08:09.213Z,67.97
2022-12-22T06:10:36.103Z,67.53
2022-12-22T06:13:02.934Z,70.60
2022-12-22T06:15:29.800Z,73.93
2022-12-22T06:17:56.600Z,69.93
2022-12-22T06:20:23.732Z,73.30
2022-12-22T06:22:50.552Z,63.53
2022-12-22T06:25:18.727Z,71.60
2022-12-22T06:27:47.675Z,66.82
2022-12-22T06:30:16.676Z,70.53
2022-12-22T06:32:43.543Z,74.90
2022-12-22T06:35:10.701Z,72.65
2022-12-22T06:37:37.760Z,74.95
2022-12-22T06:40:05.402Z,69.55
2022-12-22T06:42:50.842Z,75.50
2022-12-22T06:45:17.942Z,74.78
2022-12-22T06:47:44.815Z,67.75
2022-12-22T06:50:11.874Z,69.13
2022-12-22T06:52:39.776Z,74.88
2022-12-22T06:55:07.206Z,71.72
2022-12-22T06:57:34.043Z,73.72
2022-12-22T07:00:00.952Z,74.75
2022-12-22T07:02:28.011Z,69.18
2022-12-22T07:04:55.049Z,65.15
2022-12-22T07:07:21.923Z,67.55
2022-12-22T07:09:48.843Z,63.22
2022-12-22T07:12:15.884Z,65.35
2022-12-22T07:14:42.753Z,65.95
2022-12-22T07:17:09.670Z,67.63
2022-12-22T07:19:36.545Z,65.22
2022-12-22T07:22:03.397Z,63.75
2022-12-22T07:24:30.294Z,57.67
2022-12-22T07:26:57.249Z,60.47
2022-12-22T07:29:24.239Z,55.90
2022-12-22T07:31:51.390Z,59.22
2022-12-22T07:34:18.414Z,59.22
2022-12-22T07:36:45.564Z,63.53
2022-12-22T07:39:13.368Z,67.00
2022-12-22T07:41:58.770Z,64.32
2022-12-22T07:44:25.674Z,66.18
2022-12-22T07:46:52.705Z,68.97
2022-12-22T07:49:38.311Z,66.30
2022-12-22T07:52:05.789Z,68.43
2022-12-22T07:54:41.093Z,68.90
2022-12-22T07:57:08.717Z,61.85
2022-12-22T07:59:35.655Z,66.82
2022-12-22T08:02:02.912Z,74.28
2022-12-22T08:04:29.941Z,71.38
2022-12-22T08:06:56.838Z,67.32
2022-12-22T08:09:23.739Z,65.43
2022-12-22T08:11:50.809Z,67.50
2022-12-22T08:14:18.745Z,65.03
2022-12-22T08:16:45.727Z,63.13
2022-12-22T08:19:13.357Z,63.35
2022-12-22T08:21:40.255Z,61.95
2022-12-22T08:24:07.415Z,60.25
2022-12-22T08:26:40.777Z,61.83
2022-12-22T08:29:43.274Z,62.00
2022-12-22T08:32:11.499Z,59.58
2022-12-22T08:34:38.591Z,60.05
2022-12-22T08:37:10.522Z,63.85
2022-12-22T08:39:40.034Z,64.30
2022-12-22T08:42:11.763Z,59.13
2022-12-22T08:44:41.404Z,62.65
2022-12-22T08:47:16.432Z,62.15
2022-12-22T08:49:43.929Z,62.72
2022-12-22T08:52:17.836Z,61.20
2022-12-22T08:54:45.322Z,59.78
2022-12-22T08:57:12.257Z,57.53
2022-12-22T08:59:39.100Z,58.22
2022-12-22T09:02:06.238Z,60.35
2022-12-22T09:04:34.575Z,58.60
2022-12-22T09:07:02.796Z,59.72
2022-12-22T09:09:34.779Z,55.45
2022-12-22T09:12:03.082Z,55.65
2022-12-22T09:14:30.725Z,55.25
2022-12-22T09:16:57.828Z,53.17
2022-12-22T09:19:24.906Z,53.70
2022-12-22T09:21:51.791Z,51.50
2022-12-22T09:24:18.838Z,54.63
2022-12-22T09:26:45.744Z,49.88
2022-12-22T09:29:15.822Z,53.95
2022-12-22T09:31:43.984Z,50.47
2022-12-22T09:34:17.120Z,50.22
2022-12-22T09:36:45.468Z,51.65
2022-12-22T09:39:12.665Z,54.58
2022-12-22T09:41:52.712Z,52.03
2022-12-22T09:44:39.383Z,52.80
2022-12-22T09:47:23.129Z,54.35
2022-12-22T09:49:51.740Z,53.03
2022-12-22T09:52:43.661Z,52.72
2022-12-22T09:55:36.337Z,53.05
2022-12-22T09:58:03.438Z,50.92
2022-12-22T10:00:30.535Z,54.90
2022-12-22T10:03:14.022Z,52.83
2022-12-22T10:06:12.642Z,51.53
2022-12-22T10:08:43.535Z,51.70
2022-12-22T10:11:18.784Z,54.55
2022-12-22T10:13:46.527Z,54.92
2022-12-22T10:16:28.555Z,52.85
2022-12-22T10:19:16.408Z,56.40
2022-12-22T10:21:47.086Z,55.45
2022-12-22T10:24:27.599Z,56.95
2022-12-22T10:26:59.726Z,57.58
2022-12-22T10:29:27.237Z,57.88
2022-12-22T10:32:03.120Z,59.13
2022-12-22T10:34:30.855Z,58.70
2022-12-22T10:37:04.388Z,60.97
2022-12-22T10:39:34.993Z,58.05
2022-12-22T10:42:10.421Z,62.17
2022-12-22T10:44:38.593Z,62.63
2022-12-22T10:47:17.729Z,62.78
2022-12-22T10:49:49.728Z,65.50
2022-12-22T10:52:30.641Z,63.25
2022-12-22T10:55:22.798Z,66.25
2022-12-22T11:00:30.900Z,64.15
2022-12-22T11:03:01.427Z,65.57
2022-12-22T11:05:29.886Z,65.28
2022-12-22T11:08:01.078Z,65.78
2022-12-22T11:10:36.851Z,66.50
2022-12-22T11:13:12.772Z,64.75
2022-12-22T11:15:47.711Z,65.15
2022-12-22T11:18:32.881Z,66.70
2022-12-22T11:21:31.224Z,64.85
2022-12-22T11:24:34.548Z,61.85
2022-12-22T11:27:25.792Z,63.45
2022-12-22T11:30:17.042Z,62.78
2022-12-22T11:33:02.276Z,61.92
2022-12-22T11:35:51.394Z,64.70
2022-12-22T11:38:46.994Z,65.47
2022-12-22T11:41:16.946Z,65.68
2022-12-22T11:44:05.153Z,65.43
2022-12-22T11:46:59.652Z,70.68
2022-12-22T11:49:42.908Z,64.30
2022-12-22T11:53:08.404Z,65.50
2022-12-22T11:55:43.435Z,62.33
2022-12-22T11:58:19.334Z,65.90
2022-12-22T12:01:15.298Z,64.68
2022-12-22T12:04:06.139Z,70.20
2022-12-22T12:06:44.768Z,66.80
2022-12-22T12:09:46.754Z,70.25
2022-12-22T12:12:21.102Z,70.00
2022-12-22T12:15:03.004Z,70.63
2022-12-22T12:17:53.860Z,73.55
2022-12-22T12:20:50.896Z,68.18
2022-12-22T12:23:32.891Z,72.05
2022-12-22T12:26:15.367Z,70.20
2022-12-22T12:29:22.334Z,66.80
2022-12-22T12:31:53.738Z,69.20
2022-12-22T12:34:23.111Z,70.68
2022-12-22T12:36:58.762Z,71.43
2022-12-22T12:39:37.803Z,70.72
2022-12-22T12:42:16.201Z,67.65
2022-12-22T12:44:44.316Z,66.57
2022-12-22T12:47:31.835Z,73.82
2022-12-22T12:50:01.673Z,69.82
2022-12-22T12:52:40.436Z,73.18
2022-12-22T12:55:32.724Z,66.97
2022-12-22T12:58:03.546Z,68.85
2022-12-22T13:00:33.665Z,65.68
2022-12-22T13:03:25.306Z,68.35
2022-12-22T13:06:01.398Z,67.78
2022-12-22T13:08:33.010Z,64.47
2022-12-22T13:10:59.811Z,68.55
2022-12-22T13:13:26.591Z,70.13
2022-12-22T13:16:02.594Z,69.45
2022-12-22T13:18:33.658Z,66.35
2022-12-22T13:21:51.651Z,66.45
2022-12-22T13:24:28.632Z,65.78
2022-12-22T13:27:02.284Z,63.35
2022-12-22T13:29:46.856Z,65.45
2022-12-22T13:32:22.998Z,66.50
2022-12-22T13:35:29.572Z,71.50
2022-12-22T13:37:47.997Z,69.40
2022-12-22T13:40:22.688Z,67.10
2022-12-22T13:42:53.823Z,69.25
2022-12-22T13:45:26.505Z,66.65
2022-12-22T13:47:53.806Z,69.18
2022-12-22T13:50:25.128Z,70.03
2022-12-22T13:52:53.130Z,71.45
2022-12-22T13:55:26.542Z,70.85
2022-12-22T13:57:58.452Z,73.18
2022-12-22T14:00:28.380Z,72.57
2022-12-22T14:02:55.615Z,71.43
2022-12-22T14:05:23.424Z,79.72
2022-12-22T14:08:01.976Z,79.32
2022-12-22T14:10:37.663Z,79.18
2022-12-22T14:13:14.850Z,74.85
2022-12-22T14:15:44.230Z,76.85
2022-12-22T14:18:24.887Z,73.07
2022-12-22T14:20:55.961Z,70.90
2022-12-22T14:23:27.816Z,71.90
2022-12-22T14:25:57.509Z,73.25
2022-12-22T14:28:29.326Z,73.13
2022-12-22T14:31:00.973Z,73.63
2022-12-22T14:33:31.375Z,73.18
2022-12-22T14:36:16.193Z,73.68
2022-12-22T14:38:47.448Z,70.40
2022-12-22T14:41:47.119Z,70.93
2022-12-22T14:44:22.501Z,70.93
2022-12-22T14:47:12.041Z,73.25
2022-12-22T14:49:47.974Z,72.03
2022-12-22T14:52:35.975Z,68.95
2022-12-22T14:55:04.806Z,70.25
2022-12-22T14:57:42.940Z,71.07
2022-12-22T15:00:30.285Z,72.85
2022-12-22T15:03:02.795Z,77.13
2022-12-22T15:05:37.638Z,72.63
2022-12-22T15:08:29.077Z,72.93
2022-12-22T15:11:00.128Z,74.53
2022-12-22T15:13:27.505Z,76.75
2022-12-22T15:15:54.563Z,78.57
2022-12-22T15:18:27.620Z,82.40
2022-12-22T15:20:56.682Z,79.53
2022-12-22T15:23:24.287Z,83.25
2022-12-22T15:25:52.171Z,85.80
2022-12-22T15:28:18.979Z,82.82
2022-12-22T15:30:46.031Z,84.95
2022-12-22T15:33:18.729Z,87.72
2022-12-22T15:35:46.117Z,83.35
2022-12-22T15:38:19.022Z,86.72
2022-12-22T15:40:46.603Z,93.22
2022-12-22T15:43:53.856Z,90.85
2022-12-22T15:46:06.744Z,91.85
2022-12-22T15:48:36.492Z,91.30
2022-12-22T15:51:05.913Z,89.45
2022-12-22T15:53:34.130Z,90.50
2022-12-22T15:56:01.481Z,91.35
2022-12-22T15:58:33.304Z,99.43
2022-12-22T16:01:00.447Z,95.97
2022-12-22T16:03:27.522Z,93.78
2022-12-22T16:05:54.738Z,98.90
2022-12-22T16:08:29.159Z,95.78
2022-12-22T16:10:56.122Z,99.43
2022-12-22T16:13:27.075Z,91.18
2022-12-22T16:15:56.185Z,96.53
2022-12-22T16:18:23.342Z,97.68
2022-12-22T16:20:50.927Z,105.03
2022-12-22T16:23:21.540Z,106.32
2022-12-22T16:25:49.069Z,101.10
2022-12-22T16:28:20.099Z,97.82
2022-12-22T16:30:48.143Z,94.10
2022-12-22T16:33:15.890Z,99.05
2022-12-22T16:35:42.809Z,92.55
2022-12-22T16:38:16.294Z,97.50
2022-12-22T16:40:51.245Z,98.20
2022-12-22T16:46:12.175Z,102.47
2022-12-22T16:48:42.552Z,100.28
2022-12-22T16:51:17.142Z,105.55
2022-12-22T16:53:44.143Z,107.20
2022-12-22T16:56:20.783Z,114.22
2022-12-22T16:58:48.186Z,106.65
2022-12-22T17:01:25.089Z,104.25
2022-12-22T17:03:53.145Z,109.82
2022-12-22T17:06:20.147Z,113.43
2022-12-22T17:08:47.410Z,104.20
2022-12-22T17:11:25.299Z,104.53
2022-12-22T17:13:56.963Z,105.03
2022-12-22T17:16:24.087Z,107.78
2022-12-22T17:18:51.429Z,110.25
2022-12-22T17:21:19.855Z,106.65
2022-12-22T17:23:49.932Z,105.97
2022-12-22T17:28:47.117Z,99.43
2022-12-22T17:31:16.824Z,105.68
2022-12-22T17:33:44.578Z,109.32
2022-12-22T17:36:23.069Z,108.18
2022-12-22T17:38:50.060Z,109.20
2022-12-22T17:41:17.833Z,110.30
2022-12-22T17:43:46.335Z,101.32
2022-12-22T17:46:18.651Z,104.35
2022-12-22T17:48:46.522Z,99.43
2022-12-22T17:51:22.862Z,100.75
2022-12-22T17:53:50.701Z,102.32
2022-12-22T17:56:20.805Z,102.93
2022-12-22T18:01:32.118Z,99.85
2022-12-22T18:03:59.410Z,108.68
2022-12-22T18:06:29.744Z,110.25
2022-12-22T18:08:57.579Z,106.78
2022-12-22T18:11:24.973Z,104.47
2022-12-22T18:13:53.342Z,104.88
2022-12-22T18:16:21.299Z,109.97
2022-12-22T18:18:48.338Z,109.20
2022-12-22T18:21:18.325Z,103.30
2022-12-22T18:26:25.969Z,99.97
2022-12-22T18:28:53.810Z,109.03
2022-12-22T18:31:22.095Z,107.05
2022-12-22T18:33:49.391Z,110.57
2022-12-22T18:36:24.515Z,109.65
2022-12-22T18:38:51.633Z,110.70
2022-12-22T18:41:23.290Z,111.78
2022-12-22T18:43:50.296Z,111.63
2022-12-22T18:46:18.070Z,109.45
2022-12-22T18:48:47.391Z,108.17
2022-12-22T18:51:22.488Z,107.95
2022-12-22T18:53:54.743Z,97.72
2022-12-22T18:56:22.335Z,85.93
2022-12-22T18:58:49.353Z,82.53
2022-12-22T19:01:20.959Z,77.97
2022-12-22T19:03:49.163Z,68.28
2022-12-22T19:06:19.022Z,85.07
2022-12-22T19:08:47.420Z,70.28
2022-12-22T19:11:16.741Z,71.95
2022-12-22T19:13:47.049Z,73.45
2022-12-22T19:16:17.433Z,68.90
2022-12-22T19:18:44.460Z,74.82
2022-12-22T19:21:13.747Z,74.72
2022-12-22T19:23:43.170Z,71.15
2022-12-22T19:26:22.345Z,72.55
2022-12-22T19:28:52.994Z,77.72
2022-12-22T19:31:25.365Z,84.50
2022-12-22T19:33:53.352Z,111.90
2022-12-22T19:36:25.985Z,125.10
2022-12-22T19:39:03.385Z,140.23
2022-12-22T19:41:36.680Z,131.57
2022-12-22T19:44:04.117Z,131.68
2022-12-22T19:46:34.347Z,129.20
2022-12-22T19:49:01.577Z,125.15
2022-12-22T19:51:28.943Z,111.38
2022-12-22T19:53:55.813Z,94.32
2022-12-22T19:56:31.882Z,86.07
2022-12-22T19:59:00.764Z,74.38
2022-12-22T20:01:27.675Z,57.08
2022-12-22T20:03:56.142Z,52.60
2022-12-22T20:06:22.985Z,50.10
2022-12-22T20:08:49.934Z,46.90
2022-12-22T20:11:19.538Z,44.67
2022-12-22T20:13:47.411Z,45.92
2022-12-22T20:16:16.047Z,42.15
2022-12-22T20:18:43.969Z,42.00
2022-12-22T20:21:21.430Z,46.67
2022-12-22T20:23:48.782Z,49.90
2022-12-22T20:26:20.154Z,42.38
2022-12-22T20:28:47.166Z,61.03
2022-12-22T20:31:14.987Z,88.15
2022-12-22T20:33:42.444Z,101.70
2022-12-22T20:36:32.067Z,102.03
2022-12-22T20:39:01.377Z,97.00
2022-12-22T20:41:28.481Z,104.82
2022-12-22T20:43:55.302Z,99.43
2022-12-22T20:46:28.377Z,104.03
2022-12-22T20:48:58.131Z,101.90
2022-12-22T20:51:28.636Z,98.03
2022-12-22T20:53:57.320Z,93.75
2022-12-22T20:56:30.248Z,93.10
2022-12-22T20:58:58.855Z,75.72
2022-12-22T21:01:25.964Z,78.55
2022-12-22T21:03:53.018Z,76.80
2022-12-22T21:06:28.032Z,74.88
2022-12-22T21:08:57.054Z,74.20
2022-12-22T21:11:24.637Z,71.53
2022-12-22T21:13:52.220Z,66.93
2022-12-22T21:16:24.062Z,68.15
2022-12-22T21:18:51.735Z,70.60
2022-12-22T21:21:20.105Z,74.53
2022-12-22T21:23:46.989Z,80.50
2022-12-22T21:26:33.808Z,86.95
2022-12-22T21:29:05.017Z,84.75
2022-12-22T21:31:32.035Z,84.75
2022-12-22T21:33:58.976Z,78.80
2022-12-22T21:36:34.023Z,76.82
2022-12-22T21:39:06.101Z,74.63
2022-12-22T21:41:52.196Z,73.65
2022-12-22T21:44:19.184Z,80.05
2022-12-22T21:46:47.040Z,82.18
2022-12-22T21:49:22.568Z,83.85
2022-12-22T21:51:51.057Z,80.93
2022-12-22T21:54:19.380Z,83.35
2022-12-22T21:56:46.429Z,79.20
2022-12-22T21:59:13.948Z,77.70
2022-12-22T22:01:42.133Z,77.97
2022-12-22T22:04:09.419Z,78.18
2022-12-22T22:06:36.330Z,76.57
2022-12-22T22:09:05.256Z,79.95
2022-12-22T22:11:32.330Z,80.75
2022-12-22T22:13:59.215Z,81.85
2022-12-22T22:16:26.176Z,81.80
2022-12-22T22:18:53.263Z,88.63
2022-12-22T22:21:20.082Z,90.78
2022-12-22T22:23:47.057Z,97.93
2022-12-22T22:26:13.933Z,101.03
2022-12-22T22:28:41.079Z,105.97
2022-12-22T22:31:11.871Z,98.95
2022-12-22T22:33:38.788Z,96.68
2022-12-22T22:36:09.421Z,88.15
2022-12-22T22:38:36.626Z,94.13
2022-12-22T22:41:03.844Z,88.03
2022-12-22T22:43:31.063Z,91.18
2022-12-22T22:45:59.620Z,85.65
2022-12-22T22:48:30.122Z,67.43
2022-12-22T22:50:57.619Z,69.45
2022-12-22T22:53:36.838Z,66.13
2022-12-22T22:56:06.118Z,66.28
2022-12-22T22:58:34.659Z,66.65
2022-12-22T23:01:14.364Z,63.03
2022-12-22T23:03:42.951Z,64.22
2022-12-22T23:06:13.405Z,62.42
2022-12-22T23:08:40.408Z,62.72
2022-12-22T23:11:13.523Z,62.55
2022-12-22T23:13:40.441Z,64.43
2022-12-22T23:16:09.491Z,61.42
2022-12-22T23:18:39.395Z,65.47
2022-12-22T23:21:07.882Z,65.30
2022-12-22T23:24:01.686Z,64.90
2022-12-22T23:26:28.920Z,67.13
2022-12-22T23:29:02.656Z,74.00
2022-12-22T23:31:32.590Z,81.45
2022-12-22T23:34:00.236Z,90.83
2022-12-22T23:36:27.559Z,101.15
2022-12-22T23:38:57.450Z,96.88
2022-12-22T23:41:28.895Z,108.28
2022-12-22T23:43:56.303Z,99.78
2022-12-22T23:46:23.452Z,106.97
2022-12-22T23:48:55.150Z,115.53
2022-12-22T23:51:23.813Z,103.13
2022-12-22T23:53:51.317Z,110.95
2022-12-22T23:56:18.258Z,109.85
2022-12-22T23:58:49.468Z,112.05
